createdAt,value
2018-06-27T15:24:25.348Z,93857.35
2018-06-27T15:26:54.095Z,93856.91
2018-06-27T15:29:22.872Z,93850.08
2018-06-27T15:31:51.548Z,93854.00
2018-06-27T15:34:20.635Z,93844.73
2018-06-27T15:36:49.360Z,93844.66
2018-06-27T15:51:02.981Z,93846.77
2018-06-27T15:53:31.769Z,93846.75
2018-06-27T15:56:00.554Z,93846.38
2018-06-27T15:58:29.302Z,93848.34
2018-06-27T16:00:58.094Z,93844.95
2018-06-27T16:03:26.951Z,93844.06
2018-06-27T16:05:55.687Z,93841.72
2018-06-27T16:08:24.568Z,93846.67
2018-06-27T16:10:54.043Z,93843.85
2018-06-27T16:13:22.806Z,93845.45
2018-06-27T16:15:51.630Z,93849.72
2018-06-27T16:18:20.431Z,93848.26
2018-06-27T16:20:49.311Z,93851.89
2018-06-27T16:23:18.124Z,93841.52
2018-06-27T16:25:47.027Z,93843.75
2018-06-27T16:28:15.809Z,93842.86
2018-06-27T16:30:44.809Z,93844.70
2018-06-27T16:33:13.642Z,93846.83
2018-06-27T16:35:42.802Z,93845.69
2018-06-27T16:38:11.656Z,93848.83
2018-06-27T16:40:40.747Z,93843.52
2018-06-27T16:43:09.689Z,93851.52
2018-06-27T16:45:38.463Z,93841.30
2018-06-27T16:48:07.319Z,93847.81
2018-06-27T16:50:36.323Z,93855.47
2018-06-27T16:53:05.699Z,93855.00
2018-06-27T16:55:34.493Z,93849.23
2018-06-27T16:58:03.411Z,93851.33
2018-06-27T17:00:32.339Z,93853.92
2018-06-27T17:03:01.259Z,93853.03
2018-06-27T17:05:30.019Z,93859.59
2018-06-27T17:07:59.003Z,93855.76
2018-06-27T17:10:27.942Z,93858.09
2018-06-27T17:12:57.921Z,93859.38
2018-06-27T17:15:26.715Z,93860.55
2018-06-27T17:17:55.561Z,93852.20
2018-06-27T17:20:25.431Z,93854.06
2018-06-27T17:22:54.300Z,93854.64
2018-06-27T17:25:23.168Z,93852.55
2018-06-27T17:27:52.033Z,93861.48
2018-06-27T17:30:21.036Z,93856.61
2018-06-27T17:32:49.894Z,93860.70
2018-06-27T17:35:18.770Z,93860.91
2018-06-27T17:37:47.764Z,93859.73
2018-06-27T17:40:16.968Z,93863.47
2018-06-27T17:42:45.859Z,93860.70
2018-06-27T17:45:15.171Z,93866.89
2018-06-27T17:47:43.990Z,93861.45
2018-06-27T17:50:12.859Z,93863.81
2018-06-27T17:52:42.334Z,93864.04
2018-06-27T17:55:11.114Z,93858.28
2018-06-27T17:57:40.067Z,93855.11
2018-06-27T18:00:10.234Z,93860.22
2018-06-27T18:02:39.183Z,93859.41
2018-06-27T18:05:08.007Z,93857.37
2018-06-27T18:07:36.770Z,93856.69
2018-06-27T18:10:05.842Z,93852.92
2018-06-27T18:12:34.727Z,93858.75
2018-06-27T18:15:04.311Z,93860.28
2018-06-27T18:17:33.166Z,93859.44
2018-06-27T18:20:01.972Z,93863.63
2018-06-27T18:22:30.981Z,93864.41
2018-06-27T18:24:59.796Z,93863.09
2018-06-27T18:27:28.695Z,93852.27
2018-06-27T18:29:57.456Z,93855.97
2018-06-27T18:32:26.251Z,93868.08
2018-06-27T18:34:55.143Z,93859.53
2018-06-27T18:37:24.110Z,93857.50
2018-06-27T18:39:52.953Z,93861.01
2018-06-27T18:42:21.808Z,93858.48
2018-06-27T18:44:50.736Z,93857.11
2018-06-27T18:47:19.646Z,93864.28
2018-06-27T18:49:48.516Z,93860.58
2018-06-27T18:52:17.403Z,93858.84
2018-06-27T18:54:46.248Z,93862.61
2018-06-27T18:57:15.121Z,93864.74
2018-06-27T18:59:44.303Z,93866.55
2018-06-27T19:02:13.114Z,93870.34
2018-06-27T19:04:41.902Z,93871.48
2018-06-27T19:07:11.357Z,93864.94
2018-06-27T19:09:40.476Z,93870.34
2018-06-27T19:12:09.918Z,93870.61
2018-06-27T19:14:38.743Z,93871.63
2018-06-27T19:17:07.590Z,93871.91
2018-06-27T19:19:37.329Z,93867.69
2018-06-27T19:22:06.189Z,93868.34
2018-06-27T19:24:35.269Z,93869.09
2018-06-27T19:27:04.115Z,93868.41
2018-06-27T19:29:33.038Z,93869.39
2018-06-27T19:32:01.930Z,93871.95
2018-06-27T19:34:30.756Z,93877.19
2018-06-27T19:36:59.731Z,93871.42
2018-06-27T19:39:37.466Z,93864.28
2018-06-27T19:41:57.561Z,93865.80
2018-06-27T19:44:26.686Z,93860.91
2018-06-27T19:46:55.649Z,93862.45
2018-06-27T19:49:24.427Z,93873.52
2018-06-27T19:51:53.395Z,93877.88
2018-06-27T19:54:22.182Z,93876.70
2018-06-27T19:56:51.178Z,93883.70
2018-06-27T19:59:20.094Z,93869.89
2018-06-27T20:01:48.902Z,93868.76
2018-06-27T20:04:17.918Z,93874.29
2018-06-27T20:06:46.750Z,93872.48
2018-06-27T20:09:15.473Z,93878.54
2018-06-27T20:11:44.309Z,93880.72
2018-06-27T20:14:13.158Z,93876.41
2018-06-27T20:16:43.115Z,93881.50
2018-06-27T20:19:11.941Z,93879.61
2018-06-27T20:21:40.826Z,93873.66
2018-06-27T20:24:09.601Z,93871.98
2018-06-27T20:26:38.447Z,93866.98
2018-06-27T20:29:07.591Z,93868.52
2018-06-27T20:31:36.609Z,93867.20
2018-06-27T20:34:05.701Z,93864.27
2018-06-27T20:36:34.493Z,93861.66
2018-06-27T20:39:04.231Z,93866.59
2018-06-27T20:41:32.998Z,93859.98
2018-06-27T20:44:01.804Z,93855.78
2018-06-27T20:46:30.594Z,93850.89
2018-06-27T20:48:59.931Z,93850.33
2018-06-27T20:51:28.660Z,93845.59
2018-06-27T20:53:57.443Z,93844.80
2018-06-27T20:56:26.246Z,93851.70
2018-06-27T20:58:55.030Z,93852.14
2018-06-27T21:01:23.905Z,93854.19
2018-06-27T21:03:52.710Z,93856.13
2018-06-27T21:06:21.655Z,93850.97
2018-06-27T21:08:50.398Z,93845.31
2018-06-27T21:11:19.149Z,93861.08
2018-06-27T21:13:47.904Z,93856.58
2018-06-27T21:16:16.614Z,93859.83
2018-06-27T21:18:45.423Z,93854.39
2018-06-27T21:21:14.175Z,93853.64
2018-06-27T21:23:42.994Z,93854.53
2018-06-27T21:26:11.770Z,93855.39
2018-06-27T21:28:40.574Z,93861.36
2018-06-27T21:31:09.291Z,93857.27
2018-06-27T21:33:37.987Z,93854.00
2018-06-27T21:36:06.786Z,93853.34
2018-06-27T21:38:35.613Z,93851.89
2018-06-27T21:41:04.464Z,93850.23
2018-06-27T21:43:33.268Z,93840.24
2018-06-27T21:46:02.011Z,93841.98
2018-06-27T21:48:30.716Z,93837.85
2018-06-27T21:50:59.462Z,93837.72
2018-06-27T21:53:28.302Z,93837.13
2018-06-27T21:55:57.035Z,93830.59
2018-06-27T21:58:25.753Z,93830.84
2018-06-27T22:00:54.487Z,93830.59
2018-06-27T22:03:23.285Z,93831.96
2018-06-27T22:05:52.615Z,93832.52
2018-06-27T22:08:21.408Z,93828.16
2018-06-27T22:10:50.266Z,93826.30
2018-06-27T22:13:19.094Z,93820.67
2018-06-27T22:15:47.936Z,93820.63
2018-06-27T22:18:17.151Z,93820.17
2018-06-27T22:20:45.921Z,93818.14
2018-06-27T22:23:14.786Z,93819.81
2018-06-27T22:25:43.519Z,93818.70
2018-06-27T22:28:12.329Z,93812.68
2018-06-27T22:30:41.248Z,93807.44
2018-06-27T22:33:10.027Z,93799.06
2018-06-27T22:35:38.794Z,93795.13
2018-06-27T22:38:07.788Z,93794.73
2018-06-27T22:40:36.596Z,93792.91
2018-06-27T22:43:05.567Z,93786.72
2018-06-27T22:45:34.395Z,93775.95
2018-06-27T22:48:03.143Z,93775.06
2018-06-27T22:50:31.855Z,93772.97
2018-06-27T22:53:00.670Z,93768.32
2018-06-27T22:55:29.562Z,93771.56
2018-06-27T22:57:58.585Z,93767.57
2018-06-27T23:00:27.460Z,93765.84
2018-06-27T23:02:56.219Z,93771.23
2018-06-27T23:05:24.996Z,93775.95
2018-06-27T23:07:53.772Z,93771.23
2018-06-27T23:10:22.637Z,93767.97
2018-06-27T23:12:51.366Z,93768.98
2018-06-27T23:15:20.146Z,93771.44
2018-06-27T23:17:48.927Z,93773.11
2018-06-27T23:20:17.806Z,93772.09
2018-06-27T23:22:48.830Z,93770.48
2018-06-27T23:25:17.711Z,93765.12
2018-06-27T23:27:46.938Z,93772.67
2018-06-27T23:30:15.736Z,93773.92
2018-06-27T23:32:44.536Z,93768.00
2018-06-27T23:35:13.416Z,93768.05
2018-06-27T23:37:42.207Z,93765.23
2018-06-27T23:40:11.018Z,93774.61
2018-06-27T23:42:39.914Z,93768.19
2018-06-27T23:45:08.738Z,93764.84
2018-06-27T23:47:37.464Z,93772.28
2018-06-27T23:50:06.404Z,93766.38
2018-06-27T23:52:35.146Z,93762.69
2018-06-27T23:55:03.975Z,93760.27
2018-06-27T23:57:32.828Z,93761.02
